createdAt,value
2023-08-27T00:00:57.556Z,27.33
2023-08-27T00:03:26.891Z,20.95
2023-08-27T00:05:54.802Z,22.13
2023-08-27T00:08:23.776Z,21.00
2023-08-27T00:10:51.527Z,26.67
2023-08-27T00:13:19.281Z,25.38
2023-08-27T00:15:54.756Z,24.23
2023-08-27T00:18:22.547Z,18.52
2023-08-27T00:20:51.686Z,24.67
2023-08-27T00:23:22.080Z,22.92
2023-08-27T00:25:52.411Z,21.58
2023-08-27T00:28:22.682Z,20.83
2023-08-27T00:30:53.352Z,19.65
2023-08-27T00:33:21.262Z,22.45
2023-08-27T00:35:55.063Z,20.60
2023-08-27T00:38:25.886Z,23.35
2023-08-27T00:40:53.629Z,27.00
2023-08-27T00:43:21.399Z,23.10
2023-08-27T00:45:49.321Z,24.35
2023-08-27T00:48:17.293Z,21.95
2023-08-27T00:50:45.391Z,19.15
2023-08-27T00:53:15.705Z,21.58
2023-08-27T00:55:43.824Z,26.23
2023-08-27T00:58:11.801Z,23.60
2023-08-27T01:00:39.573Z,20.20
2023-08-27T01:03:07.588Z,25.38
2023-08-27T01:05:35.639Z,27.48
2023-08-27T01:08:08.088Z,23.27
2023-08-27T01:10:42.516Z,24.67
2023-08-27T01:13:11.505Z,25.60
2023-08-27T01:15:39.293Z,24.17
2023-08-27T01:18:08.569Z,23.55
2023-08-27T01:20:36.388Z,26.10
2023-08-27T01:23:05.675Z,21.10
2023-08-27T01:25:35.333Z,21.92
2023-08-27T01:28:10.996Z,23.45
2023-08-27T01:30:41.466Z,24.73
2023-08-27T01:33:11.279Z,20.08
2023-08-27T01:35:39.436Z,19.23
2023-08-27T01:38:08.619Z,27.15
2023-08-27T01:40:36.693Z,23.00
2023-08-27T01:43:06.824Z,22.23
2023-08-27T01:45:37.075Z,18.83
2023-08-27T01:48:05.177Z,21.23
2023-08-27T01:50:33.463Z,20.55
2023-08-27T01:53:01.652Z,21.08
2023-08-27T01:55:31.132Z,30.13
2023-08-27T01:57:58.937Z,19.45
2023-08-27T02:00:29.774Z,23.50
2023-08-27T02:02:58.183Z,21.25
2023-08-27T02:05:26.254Z,25.02
2023-08-27T02:07:55.295Z,25.58
2023-08-27T02:10:23.058Z,25.85
2023-08-27T02:12:52.229Z,20.20
2023-08-27T02:15:20.274Z,23.98
2023-08-27T02:17:48.108Z,19.88
2023-08-27T02:20:16.000Z,20.80
2023-08-27T02:22:43.888Z,23.58
2023-08-27T02:25:13.810Z,23.67
2023-08-27T02:27:43.029Z,24.83
2023-08-27T02:30:12.801Z,23.15
2023-08-27T02:32:40.609Z,33.10
2023-08-27T02:35:09.049Z,24.35
2023-08-27T02:37:36.883Z,17.77
2023-08-27T02:40:06.846Z,21.50
2023-08-27T02:42:34.622Z,25.35
2023-08-27T02:45:02.363Z,25.38
2023-08-27T02:47:31.479Z,21.65
2023-08-27T02:49:59.471Z,19.67
2023-08-27T02:52:27.229Z,23.08
2023-08-27T02:54:55.142Z,24.45
2023-08-27T02:57:22.920Z,20.17
2023-08-27T02:59:50.684Z,24.83
2023-08-27T03:02:18.580Z,22.65
2023-08-27T03:04:47.725Z,20.48
2023-08-27T03:07:15.449Z,23.20
2023-08-27T03:09:43.154Z,25.55
2023-08-27T03:12:10.877Z,21.45
2023-08-27T03:14:42.125Z,23.02
2023-08-27T03:17:11.885Z,22.90
2023-08-27T03:19:39.731Z,23.17
2023-08-27T03:22:11.906Z,24.63
2023-08-27T03:24:44.905Z,24.48
2023-08-27T03:27:13.302Z,19.73
2023-08-27T03:29:41.095Z,33.30
2023-08-27T03:32:10.981Z,22.48
2023-08-27T03:34:39.928Z,21.63
2023-08-27T03:37:09.222Z,27.58
2023-08-27T03:39:37.144Z,25.38
2023-08-27T03:42:06.491Z,23.10
2023-08-27T03:44:34.442Z,21.10
2023-08-27T03:47:02.165Z,19.05
2023-08-27T03:49:29.958Z,24.02
2023-08-27T03:51:58.104Z,23.83
2023-08-27T03:54:29.028Z,26.60
2023-08-27T03:56:56.930Z,29.55
2023-08-27T03:59:24.770Z,23.42
2023-08-27T04:01:56.644Z,22.73
2023-08-27T04:04:24.365Z,26.55
2023-08-27T04:06:52.534Z,30.00
2023-08-27T04:09:20.365Z,27.80
2023-08-27T04:11:49.494Z,28.50
2023-08-27T04:14:17.265Z,23.60
2023-08-27T04:16:45.010Z,24.50
2023-08-27T04:19:12.945Z,26.10
2023-08-27T04:21:47.886Z,27.88
2023-08-27T04:24:17.576Z,27.55
2023-08-27T04:26:45.649Z,31.08
2023-08-27T04:29:14.980Z,27.80
2023-08-27T04:31:44.681Z,36.65
2023-08-27T04:34:12.500Z,17.10
2023-08-27T04:36:40.731Z,22.23
2023-08-27T04:39:09.978Z,28.00
2023-08-27T04:41:37.789Z,18.65
2023-08-27T04:44:05.736Z,16.55
2023-08-27T04:46:35.079Z,18.65
2023-08-27T04:49:02.820Z,23.05
2023-08-27T04:51:30.714Z,16.05
2023-08-27T04:53:58.450Z,17.90
2023-08-27T04:56:26.215Z,19.55
2023-08-27T04:58:54.310Z,20.75
2023-08-27T05:01:22.467Z,17.85
2023-08-27T05:03:51.630Z,27.52
2023-08-27T05:06:19.404Z,24.67
2023-08-27T05:08:48.904Z,21.63
2023-08-27T05:11:16.934Z,23.33
2023-08-27T05:13:44.651Z,19.48
2023-08-27T05:16:12.435Z,23.85
2023-08-27T05:18:40.213Z,19.70
2023-08-27T05:21:09.430Z,21.48
2023-08-27T05:23:37.168Z,16.75
2023-08-27T05:26:04.904Z,18.42
2023-08-27T05:28:32.632Z,17.98
2023-08-27T05:31:00.401Z,15.50
2023-08-27T05:33:28.131Z,21.10
2023-08-27T05:35:56.212Z,17.33
2023-08-27T05:38:25.347Z,15.85
2023-08-27T05:40:53.787Z,17.42
2023-08-27T05:43:21.592Z,12.15
2023-08-27T05:45:49.366Z,12.93
2023-08-27T05:48:17.308Z,17.02
2023-08-27T05:50:45.656Z,13.30
2023-08-27T05:53:15.250Z,12.98
2023-08-27T05:55:45.236Z,11.93
2023-08-27T05:58:13.148Z,12.82
2023-08-27T06:00:40.935Z,12.20
2023-08-27T06:03:08.798Z,13.00
2023-08-27T06:05:37.053Z,17.75
2023-08-27T06:08:05.349Z,12.23
2023-08-27T06:10:33.296Z,14.23
2023-08-27T06:13:04.485Z,12.45
2023-08-27T06:15:32.876Z,11.35
2023-08-27T06:18:04.350Z,21.30
2023-08-27T06:20:32.813Z,13.98
2023-08-27T06:23:00.878Z,12.25
2023-08-27T06:25:28.666Z,17.92
2023-08-27T06:27:57.297Z,14.57
2023-08-27T06:30:26.912Z,10.68
2023-08-27T06:32:55.254Z,16.02
2023-08-27T06:35:23.185Z,17.10
2023-08-27T06:37:50.945Z,9.68
2023-08-27T06:40:18.997Z,15.70
2023-08-27T06:42:46.884Z,14.00
2023-08-27T06:45:14.766Z,18.38
2023-08-27T06:47:44.733Z,11.82
2023-08-27T06:50:12.576Z,10.63
2023-08-27T06:52:40.596Z,13.38
2023-08-27T06:55:08.639Z,12.77
2023-08-27T06:57:36.391Z,17.80
2023-08-27T07:00:04.753Z,13.05
2023-08-27T07:02:35.386Z,13.13
2023-08-27T07:05:09.440Z,12.25
2023-08-27T07:07:38.710Z,12.82
2023-08-27T07:10:07.090Z,11.27
2023-08-27T07:12:35.329Z,11.05
2023-08-27T07:15:03.110Z,12.85
2023-08-27T07:17:31.036Z,12.85
2023-08-27T07:19:58.858Z,16.88
2023-08-27T07:22:28.236Z,11.88
2023-08-27T07:24:55.980Z,15.27
2023-08-27T07:27:23.936Z,11.20
2023-08-27T07:29:51.712Z,15.38
2023-08-27T07:32:19.467Z,14.32
2023-08-27T07:34:47.296Z,13.82
2023-08-27T07:37:15.092Z,11.88
2023-08-27T07:39:46.829Z,10.02
2023-08-27T07:42:14.624Z,11.07
2023-08-27T07:44:56.470Z,9.07
2023-08-27T07:47:24.296Z,11.63
2023-08-27T07:49:52.128Z,11.45
2023-08-27T07:52:19.873Z,13.50
2023-08-27T07:54:49.107Z,10.30
2023-08-27T07:57:17.606Z,16.98
2023-08-27T07:59:45.882Z,11.38
2023-08-27T08:02:13.695Z,12.07
2023-08-27T08:04:41.480Z,14.70
2023-08-27T08:07:10.920Z,13.82
2023-08-27T08:09:47.185Z,8.80
2023-08-27T08:12:27.779Z,10.30
2023-08-27T08:14:55.569Z,10.30
2023-08-27T08:17:31.778Z,9.50
2023-08-27T08:20:12.773Z,17.45
2023-08-27T08:22:40.669Z,9.90
2023-08-27T08:25:08.835Z,11.40
2023-08-27T08:27:38.011Z,14.65
2023-08-27T08:30:06.387Z,9.55
2023-08-27T08:32:34.896Z,7.85
2023-08-27T08:35:05.616Z,14.98
2023-08-27T08:37:33.526Z,10.80
2023-08-27T08:40:01.273Z,9.65
2023-08-27T08:42:32.008Z,8.98
2023-08-27T08:45:07.995Z,8.45
2023-08-27T08:47:37.433Z,11.00
2023-08-27T08:50:07.154Z,9.88
2023-08-27T08:52:38.263Z,7.70
2023-08-27T08:55:11.001Z,7.18
2023-08-27T09:00:12.783Z,8.90
2023-08-27T09:02:41.301Z,6.68
2023-08-27T09:05:11.497Z,9.85
2023-08-27T09:07:39.970Z,8.85
2023-08-27T09:10:11.930Z,6.28
2023-08-27T09:12:41.968Z,13.37
2023-08-27T09:15:11.896Z,6.95
2023-08-27T09:17:39.907Z,8.73
2023-08-27T09:20:08.478Z,12.13
2023-08-27T09:22:37.699Z,8.98
2023-08-27T09:25:06.135Z,4.10
2023-08-27T09:27:35.337Z,9.88
2023-08-27T09:30:05.536Z,8.43
2023-08-27T09:32:36.622Z,6.32
2023-08-27T09:35:05.201Z,4.90
2023-08-27T09:37:41.804Z,7.05
2023-08-27T09:40:10.393Z,7.88
2023-08-27T09:42:40.259Z,6.47
2023-08-27T09:45:19.996Z,6.25
2023-08-27T09:47:52.036Z,8.80
2023-08-27T09:50:42.691Z,8.40
2023-08-27T09:53:50.249Z,5.75
2023-08-27T09:56:18.541Z,7.57
2023-08-27T09:58:58.259Z,7.25
2023-08-27T10:01:47.204Z,10.32
2023-08-27T10:04:31.077Z,11.88
2023-08-27T10:06:58.969Z,7.32
2023-08-27T10:09:35.494Z,8.93
2023-08-27T10:12:04.465Z,6.07
2023-08-27T10:14:33.814Z,7.55
2023-08-27T10:17:01.550Z,9.57
2023-08-27T10:19:30.825Z,9.90
2023-08-27T10:21:59.106Z,6.60
2023-08-27T10:24:30.499Z,11.13
2023-08-27T10:27:05.748Z,8.23
2023-08-27T10:29:38.919Z,5.47
2023-08-27T10:32:15.754Z,7.65
2023-08-27T10:34:45.409Z,4.93
2023-08-27T10:37:31.005Z,4.50
2023-08-27T10:40:22.690Z,6.80
2023-08-27T10:45:43.174Z,5.32
2023-08-27T10:48:23.194Z,6.15
2023-08-27T10:51:04.582Z,4.47
2023-08-27T10:53:40.550Z,6.07
2023-08-27T10:56:29.373Z,8.50
